Time;durP1;ratioP1;P1;durP2;ratioP2;P2;SDS_P1;SDS_P2;PMS_P1;PMS_P2;Temp;Humidity;BMP_temperature;BMP_pressure;BME280_temperature;BME280_humidity;BME280_pressure;Samples;Min_cycle;Max_cycle;Signal;HPM_P1;HPM_P2
2021/07/28 00:00:27;;;;;;;;;;;18.20;93.70;;;;;;4360533;33;20001;-82
2021/07/28 00:03:04;;;;;;;;;;;18.20;93.70;;;;;;4359287;33;43127;-85
2021/07/28 00:05:38;;;;;;;;;;;18.20;93.70;;;;;;4346056;33;42994;-84
2021/07/28 00:08:05;;;;;;;;;;;18.20;93.70;;;;;;4359705;33;44829;-85
2021/07/28 00:10:34;;;;;;;;;;;18.10;94.00;;;;;;4359647;33;46245;-86
2021/07/28 00:13:07;;;;;;;;;;;18.20;93.70;;;;;;4345925;33;42647;-84
2021/07/28 00:15:34;;;;;;;;;;;18.20;93.70;;;;;;4348056;32;44829;-85
2021/07/28 00:18:10;;;;;;;;;;;18.20;93.70;;;;;;4361126;32;42581;-83
2021/07/28 00:23:16;;;;;;;;;;;18.10;93.70;;;;;;4362262;32;45144;-85
2021/07/28 00:25:44;;;;;;;;;;;18.10;93.70;;;;;;4349058;32;44836;-85
2021/07/28 00:28:14;;;;;;;;;;;18.10;93.80;;;;;;4362278;32;45852;-82
2021/07/28 00:30:45;;;;;;;;;;;18.10;93.80;;;;;;4349714;32;20075;-85
2021/07/28 00:33:12;;;;;;;;;;;18.10;93.90;;;;;;4362030;32;44979;-83
2021/07/28 00:35:39;;;;;;;;;;;18.10;93.90;;;;;;4348937;32;41842;-85
2021/07/28 00:38:13;;;;;;;;;;;18.10;93.90;;;;;;4360733;32;43427;-85
2021/07/28 00:40:45;;;;;;;;;;;18.20;93.90;;;;;;4349186;32;44110;-82
2021/07/28 00:43:13;;;;;;;;;;;18.20;93.90;;;;;;4362354;32;45127;-84
2021/07/28 00:45:43;;;;;;;;;;;18.20;93.90;;;;;;4360813;32;45224;-84
2021/07/28 00:48:12;;;;;;;;;;;18.20;93.90;;;;;;4360885;32;44613;-84
2021/07/28 00:50:42;;;;;;;;;;;18.20;93.90;;;;;;4360622;32;43975;-85
2021/07/28 00:53:19;;;;;;;;;;;18.20;93.90;;;;;;4361139;32;44083;-82
2021/07/28 00:55:47;;;;;;;;;;;18.20;94.00;;;;;;4361769;32;43951;-83
2021/07/28 00:58:14;;;;;;;;;;;18.20;94.00;;;;;;4361917;32;45356;-85
2021/07/28 01:00:42;;;;;;;;;;;18.20;94.00;;;;;;4361252;32;20020;-85
2021/07/28 01:03:12;;;;;;;;;;;18.20;94.00;;;;;;4348062;32;45339;-85
2021/07/28 01:05:42;;;;;;;;;;;18.20;94.00;;;;;;4360822;32;44673;-84
2021/07/28 01:08:09;;;;;;;;;;;18.20;94.00;;;;;;4348315;32;43478;-83
2021/07/28 01:10:39;;;;;;;;;;;18.20;94.10;;;;;;4360042;32;44368;-81
2021/07/28 01:13:08;;;;;;;;;;;18.20;94.10;;;;;;4348131;32;43762;-85
2021/07/28 01:18:12;;;;;;;;;;;18.20;94.10;;;;;;4361200;32;43853;-82
2021/07/28 01:20:40;;;;;;;;;;;18.10;94.20;;;;;;4348058;32;43246;-83
2021/07/28 01:23:17;;;;;;;;;;;18.20;94.20;;;;;;4360306;32;43853;-82
2021/07/28 01:25:47;;;;;;;;;;;18.10;94.20;;;;;;4361362;32;45019;-84
2021/07/28 01:28:17;;;;;;;;;;;18.20;94.30;;;;;;4361507;32;44295;-85
2021/07/28 01:30:44;;;;;;;;;;;18.10;94.20;;;;;;4348025;32;45577;-80
2021/07/28 01:33:16;;;;;;;;;;;18.10;94.30;;;;;;4361568;32;44935;-85
2021/07/28 01:35:46;;;;;;;;;;;18.20;94.30;;;;;;4348187;32;45280;-81
2021/07/28 01:38:13;;;;;;;;;;;18.20;94.30;;;;;;4360409;32;44788;-84
2021/07/28 01:40:46;;;;;;;;;;;18.20;94.20;;;;;;4360959;32;43479;-82
2021/07/28 01:43:16;;;;;;;;;;;18.20;94.20;;;;;;4360327;32;43219;-83
2021/07/28 01:45:43;;;;;;;;;;;18.20;94.20;;;;;;4361304;32;44705;-82
2021/07/28 01:48:16;;;;;;;;;;;18.20;94.20;;;;;;4359819;32;42997;-80
2021/07/28 01:50:46;;;;;;;;;;;18.20;94.20;;;;;;4348076;32;43708;-84
2021/07/28 01:53:18;;;;;;;;;;;18.20;94.30;;;;;;4360665;32;42633;-84
2021/07/28 01:55:48;;;;;;;;;;;18.20;94.30;;;;;;4360038;32;45466;-86
2021/07/28 01:58:21;;;;;;;;;;;18.20;94.30;;;;;;4359544;32;45108;-84
2021/07/28 02:00:51;;;;;;;;;;;18.20;94.30;;;;;;4360298;32;43339;-81
2021/07/28 02:03:19;;;;;;;;;;;18.20;94.30;;;;;;4360764;32;44294;-83
2021/07/28 02:05:49;;;;;;;;;;;18.20;94.30;;;;;;4360077;32;42910;-84
2021/07/28 02:08:18;;;;;;;;;;;18.20;94.30;;;;;;4347413;32;43835;-84
2021/07/28 02:10:46;;;;;;;;;;;18.20;94.30;;;;;;4359391;32;42478;-84
2021/07/28 02:13:14;;;;;;;;;;;18.20;94.30;;;;;;4360919;32;43264;-80
2021/07/28 02:15:44;;;;;;;;;;;18.10;94.30;;;;;;4347034;32;44200;-83
2021/07/28 02:18:12;;;;;;;;;;;18.20;94.40;;;;;;4360727;32;45342;-85
2021/07/28 02:20:39;;;;;;;;;;;18.10;94.40;;;;;;4359638;32;45329;-84
2021/07/28 02:23:09;;;;;;;;;;;18.20;94.40;;;;;;4360346;32;44179;-81
2021/07/28 02:25:36;;;;;;;;;;;18.10;94.40;;;;;;4360201;32;42955;-81
2021/07/28 02:28:05;;;;;;;;;;;18.10;94.40;;;;;;4347047;32;45378;-82
2021/07/28 02:30:38;;;;;;;;;;;18.10;94.40;;;;;;4360551;32;42842;-84
2021/07/28 02:33:13;;;;;;;;;;;18.10;94.50;;;;;;4360519;32;19997;-83
2021/07/28 02:35:45;;;;;;;;;;;18.10;94.50;;;;;;4359640;32;43827;-83
2021/07/28 02:38:12;;;;;;;;;;;18.10;94.50;;;;;;4346449;32;44415;-85
2021/07/28 02:40:42;;;;;;;;;;;18.10;94.50;;;;;;4360357;32;43269;-84
2021/07/28 02:43:12;;;;;;;;;;;18.10;94.50;;;;;;4347089;32;43462;-84
2021/07/28 02:45:42;;;;;;;;;;;18.10;94.50;;;;;;4360366;32;42279;-80
2021/07/28 02:48:09;;;;;;;;;;;18.10;94.50;;;;;;4346968;32;43474;-83
2021/07/28 02:50:39;;;;;;;;;;;18.10;94.50;;;;;;4358918;32;44588;-84
2021/07/28 02:53:06;;;;;;;;;;;18.10;94.50;;;;;;4346731;32;45091;-82
2021/07/28 02:55:39;;;;;;;;;;;18.10;94.60;;;;;;4359262;32;45370;-85
2021/07/28 02:58:06;;;;;;;;;;;18.10;94.50;;;;;;4359100;32;44166;-84
2021/07/28 03:00:35;;;;;;;;;;;18.10;94.50;;;;;;4346812;32;44868;-85
2021/07/28 03:03:03;;;;;;;;;;;18.10;94.50;;;;;;4358634;32;44011;-85
2021/07/28 03:05:35;;;;;;;;;;;18.10;94.90;;;;;;4346416;32;43935;-82
2021/07/28 03:08:05;;;;;;;;;;;18.10;94.50;;;;;;4360428;32;44322;-85
2021/07/28 03:10:37;;;;;;;;;;;18.10;94.50;;;;;;4359782;32;42501;-85
2021/07/28 03:13:05;;;;;;;;;;;18.10;94.50;;;;;;4360132;32;45712;-85
2021/07/28 03:15:37;;;;;;;;;;;18.10;94.50;;;;;;4346207;32;43724;-84
2021/07/28 03:18:04;;;;;;;;;;;18.10;94.60;;;;;;4358786;32;42952;-86
2021/07/28 03:20:34;;;;;;;;;;;18.10;94.60;;;;;;4358915;32;43980;-84
2021/07/28 03:23:01;;;;;;;;;;;18.10;94.60;;;;;;4346181;32;44410;-84
2021/07/28 03:25:31;;;;;;;;;;;18.10;94.60;;;;;;4358942;32;43494;-84
2021/07/28 03:28:01;;;;;;;;;;;18.10;94.60;;;;;;4346601;33;45242;-85
2021/07/28 03:30:28;;;;;;;;;;;18.10;94.60;;;;;;4358576;33;45096;-85
2021/07/28 03:32:55;;;;;;;;;;;18.20;94.60;;;;;;4358944;33;46014;-83
2021/07/28 03:35:23;;;;;;;;;;;18.20;94.60;;;;;;4358738;33;43402;-85
2021/07/28 03:37:53;;;;;;;;;;;18.20;94.60;;;;;;4346421;33;43980;-84
2021/07/28 03:40:20;;;;;;;;;;;18.20;94.60;;;;;;4358236;33;43448;-82
2021/07/28 03:42:50;;;;;;;;;;;18.20;94.70;;;;;;4346188;33;42966;-83
2021/07/28 03:45:17;;;;;;;;;;;18.10;94.70;;;;;;4358859;33;46091;-81
2021/07/28 03:47:46;;;;;;;;;;;18.10;94.70;;;;;;4346421;33;43089;-83
2021/07/28 03:50:16;;;;;;;;;;;18.10;94.70;;;;;;4348051;32;43984;-80
2021/07/28 03:52:43;;;;;;;;;;;18.10;94.70;;;;;;4362235;32;45614;-84
2021/07/28 03:55:10;;;;;;;;;;;18.10;94.80;;;;;;4349548;32;44208;-82
2021/07/28 03:57:37;;;;;;;;;;;18.10;94.80;;;;;;4349582;32;45821;-84
2021/07/28 04:00:05;;;;;;;;;;;18.10;94.80;;;;;;4348764;32;44364;-84
2021/07/28 04:02:32;;;;;;;;;;;18.10;94.80;;;;;;4361146;32;43352;-85
2021/07/28 04:05:02;;;;;;;;;;;18.10;94.80;;;;;;4349534;32;44292;-84
2021/07/28 04:07:31;;;;;;;;;;;18.10;94.80;;;;;;4362647;32;44136;-83
2021/07/28 04:10:04;;;;;;;;;;;18.10;94.80;;;;;;4361208;32;42679;-80
2021/07/28 04:12:33;;;;;;;;;;;18.10;94.90;;;;;;4362577;32;44184;-82
2021/07/28 04:15:03;;;;;;;;;;;18.10;94.90;;;;;;4348850;32;46147;-84
2021/07/28 04:17:33;;;;;;;;;;;18.10;94.90;;;;;;4349162;32;44993;-84
2021/07/28 04:20:02;;;;;;;;;;;18.10;94.90;;;;;;4360824;32;43478;-85
2021/07/28 04:22:34;;;;;;;;;;;18.10;94.90;;;;;;4348678;32;45652;-86
2021/07/28 04:25:05;;;;;;;;;;;18.10;94.90;;;;;;4361492;32;45986;-86
2021/07/28 04:27:32;;;;;;;;;;;18.10;94.90;;;;;;4349204;32;44641;-85
2021/07/28 04:30:05;;;;;;;;;;;18.10;94.90;;;;;;4362307;32;43003;-82
2021/07/28 04:32:32;;;;;;;;;;;18.10;95.00;;;;;;4348995;32;43497;-87
2021/07/28 04:35:02;;;;;;;;;;;18.10;95.10;;;;;;4362917;32;20035;-86
2021/07/28 04:37:29;;;;;;;;;;;18.00;95.10;;;;;;4360811;32;43344;-87
2021/07/28 04:40:01;;;;;;;;;;;18.00;95.10;;;;;;4349027;32;44164;-88
2021/07/28 04:42:29;;;;;;;;;;;18.00;95.20;;;;;;4362512;32;45282;-89
2021/07/28 04:44:56;;;;;;;;;;;18.00;95.20;;;;;;4348489;32;42935;-85
2021/07/28 04:47:26;;;;;;;;;;;18.10;95.30;;;;;;4361612;32;44853;-88
2021/07/28 04:49:53;;;;;;;;;;;18.00;95.30;;;;;;4348550;32;44620;-84
2021/07/28 04:52:24;;;;;;;;;;;18.00;95.30;;;;;;4361033;32;45768;-88
2021/07/28 04:54:52;;;;;;;;;;;18.00;95.40;;;;;;4361197;32;44813;-86
2021/07/28 04:57:19;;;;;;;;;;;17.90;95.40;;;;;;4348737;32;44052;-86
2021/07/28 04:59:46;;;;;;;;;;;18.00;95.50;;;;;;4361587;32;44511;-86
2021/07/28 05:02:13;;;;;;;;;;;18.00;95.50;;;;;;4347575;32;44938;-88
2021/07/28 05:04:42;;;;;;;;;;;18.00;95.50;;;;;;4348748;32;43629;-89
2021/07/28 05:07:10;;;;;;;;;;;18.00;95.50;;;;;;4348329;32;44961;-86
2021/07/28 05:09:38;;;;;;;;;;;18.00;95.50;;;;;;4360340;32;45416;-87
2021/07/28 05:12:06;;;;;;;;;;;18.00;95.50;;;;;;4360168;32;44390;-86
2021/07/28 05:14:34;;;;;;;;;;;18.00;95.60;;;;;;4348218;32;44120;-86
2021/07/28 05:17:01;;;;;;;;;;;18.00;95.60;;;;;;4361597;32;44025;-85
2021/07/28 05:19:28;;;;;;;;;;;18.00;95.50;;;;;;4348219;32;44352;-87
2021/07/28 05:21:55;;;;;;;;;;;18.10;95.50;;;;;;4361760;32;45402;-86
2021/07/28 05:24:22;;;;;;;;;;;18.10;95.50;;;;;;4360818;32;44187;-87
2021/07/28 05:26:49;;;;;;;;;;;18.00;95.40;;;;;;4348238;32;45954;-86
2021/07/28 05:29:16;;;;;;;;;;;18.10;95.40;;;;;;4360517;32;44772;-86
2021/07/28 05:31:43;;;;;;;;;;;18.10;95.40;;;;;;4360367;32;44189;-85
2021/07/28 05:34:11;;;;;;;;;;;18.10;95.40;;;;;;4347627;32;44802;-86
2021/07/28 05:36:40;;;;;;;;;;;18.10;95.30;;;;;;4360126;32;45425;-86
2021/07/28 05:39:07;;;;;;;;;;;18.10;95.30;;;;;;4347676;32;42661;-86
2021/07/28 05:41:34;;;;;;;;;;;18.10;95.30;;;;;;4361014;32;43459;-87
2021/07/28 05:44:07;;;;;;;;;;;18.10;95.30;;;;;;4360001;32;43856;-87
2021/07/28 05:46:35;;;;;;;;;;;18.10;95.30;;;;;;4347419;32;42424;-85
2021/07/28 05:49:02;;;;;;;;;;;18.10;95.30;;;;;;4359620;32;44778;-85
2021/07/28 05:51:30;;;;;;;;;;;18.10;95.30;;;;;;4348075;32;43565;-85
2021/07/28 05:53:57;;;;;;;;;;;18.10;95.30;;;;;;4359530;32;44097;-85
2021/07/28 05:56:24;;;;;;;;;;;18.10;95.30;;;;;;4347918;32;44332;-85
2021/07/28 05:58:51;;;;;;;;;;;18.10;95.30;;;;;;4359521;32;43131;-85
2021/07/28 06:01:20;;;;;;;;;;;18.10;95.30;;;;;;4360533;32;45617;-85
2021/07/28 06:03:47;;;;;;;;;;;18.10;95.30;;;;;;4360914;32;43312;-85
2021/07/28 06:06:14;;;;;;;;;;;18.10;95.30;;;;;;4347690;32;45765;-85
2021/07/28 06:08:41;;;;;;;;;;;18.10;95.30;;;;;;4359677;32;46054;-84
2021/07/28 06:11:09;;;;;;;;;;;18.10;95.30;;;;;;4359786;32;45754;-84
2021/07/28 06:13:36;;;;;;;;;;;18.10;95.40;;;;;;4360305;32;44001;-84
2021/07/28 06:16:03;;;;;;;;;;;18.20;95.40;;;;;;4359839;32;45453;-85
2021/07/28 06:18:30;;;;;;;;;;;18.10;95.40;;;;;;4347327;32;44367;-86
2021/07/28 06:20:57;;;;;;;;;;;18.10;95.40;;;;;;4347034;32;44172;-85
2021/07/28 06:23:24;;;;;;;;;;;18.10;95.40;;;;;;4359220;32;44451;-84
2021/07/28 06:25:52;;;;;;;;;;;18.10;95.50;;;;;;4360569;32;43281;-85
2021/07/28 06:28:19;;;;;;;;;;;18.10;95.60;;;;;;4359719;32;43330;-84
2021/07/28 06:30:48;;;;;;;;;;;18.10;95.60;;;;;;4360164;32;44212;-85
2021/07/28 06:33:15;;;;;;;;;;;18.10;95.60;;;;;;4358961;32;45516;-86
2021/07/28 06:35:42;;;;;;;;;;;18.10;95.60;;;;;;4347191;32;44812;-85
2021/07/28 06:38:09;;;;;;;;;;;18.10;95.60;;;;;;4359666;32;43846;-84
2021/07/28 06:40:36;;;;;;;;;;;18.20;95.70;;;;;;4359151;32;43372;-86
2021/07/28 06:43:03;;;;;;;;;;;18.10;95.60;;;;;;4346682;32;44120;-84
2021/07/28 06:45:30;;;;;;;;;;;18.20;95.70;;;;;;4359257;32;44274;-86
2021/07/28 06:47:57;;;;;;;;;;;18.20;95.70;;;;;;4347052;32;45225;-87
2021/07/28 06:50:27;;;;;;;;;;;18.20;95.70;;;;;;4360087;32;44239;-82
2021/07/28 06:52:54;;;;;;;;;;;18.10;95.70;;;;;;4346817;32;45142;-86
2021/07/28 06:55:24;;;;;;;;;;;18.20;95.70;;;;;;4358935;32;44398;-84
2021/07/28 06:57:51;;;;;;;;;;;18.20;95.70;;;;;;4358777;32;44055;-82
2021/07/28 07:00:18;;;;;;;;;;;18.20;95.80;;;;;;4360266;32;44792;-84
2021/07/28 07:02:45;;;;;;;;;;;18.20;95.80;;;;;;4359086;32;46068;-88
2021/07/28 07:05:15;;;;;;;;;;;18.20;95.80;;;;;;4347001;32;42382;-85
2021/07/28 07:07:42;;;;;;;;;;;18.20;95.80;;;;;;4358823;32;45341;-85
2021/07/28 07:10:09;;;;;;;;;;;18.20;95.80;;;;;;4346505;32;44550;-84
2021/07/28 07:12:37;;;;;;;;;;;18.20;95.80;;;;;;4358706;32;45521;-86
2021/07/28 07:15:05;;;;;;;;;;;18.20;95.80;;;;;;4359307;32;43653;-85
2021/07/28 07:17:32;;;;;;;;;;;18.20;95.80;;;;;;4360137;32;43490;-86
2021/07/28 07:20:00;;;;;;;;;;;18.20;95.80;;;;;;4360127;32;44191;-85
2021/07/28 07:22:27;;;;;;;;;;;18.20;95.80;;;;;;4360176;32;43597;-84
2021/07/28 07:24:54;;;;;;;;;;;18.20;95.80;;;;;;4359936;32;45280;-82
2021/07/28 07:27:21;;;;;;;;;;;18.20;95.70;;;;;;4360125;32;43807;-80
2021/07/28 07:29:48;;;;;;;;;;;18.20;95.70;;;;;;4346491;33;42583;-84
2021/07/28 07:32:20;;;;;;;;;;;18.20;95.70;;;;;;4358845;33;44210;-82
2021/07/28 07:34:50;;;;;;;;;;;18.30;95.80;;;;;;4346165;33;42952;-85
2021/07/28 07:37:17;;;;;;;;;;;18.20;95.70;;;;;;4359631;33;43959;-87
2021/07/28 07:39:44;;;;;;;;;;;18.30;95.70;;;;;;4346306;33;43471;-85
2021/07/28 07:42:11;;;;;;;;;;;18.30;95.70;;;;;;4358495;33;43425;-84
2021/07/28 07:44:38;;;;;;;;;;;18.30;95.70;;;;;;4346490;33;45219;-84
2021/07/28 07:47:06;;;;;;;;;;;18.30;95.70;;;;;;4359326;33;45922;-86
2021/07/28 07:49:33;;;;;;;;;;;18.30;95.70;;;;;;4346184;33;42741;-80
2021/07/28 07:52:00;;;;;;;;;;;18.30;95.70;;;;;;4358844;33;44895;-81
2021/07/28 07:54:35;;;;;;;;;;;18.30;95.70;;;;;;4358278;33;44087;-84
2021/07/28 07:57:10;;;;;;;;;;;18.30;95.70;;;;;;4346553;33;44288;-83
2021/07/28 07:59:40;;;;;;;;;;;18.30;95.70;;;;;;4358565;33;43456;-81
2021/07/28 08:02:10;;;;;;;;;;;18.40;95.70;;;;;;4346295;33;42607;-82
2021/07/28 08:04:40;;;;;;;;;;;18.40;95.70;;;;;;4358856;33;43257;-81
2021/07/28 08:07:18;;;;;;;;;;;18.40;95.60;;;;;;4347512;33;20039;-85
2021/07/28 08:09:51;;;;;;;;;;;18.40;95.60;;;;;;4358638;33;42542;-81
2021/07/28 08:12:26;;;;;;;;;;;18.40;95.60;;;;;;4359685;33;46184;-81
2021/07/28 08:14:56;;;;;;;;;;;18.40;95.50;;;;;;4358939;33;43272;-82
2021/07/28 08:17:28;;;;;;;;;;;18.40;95.50;;;;;;4345774;33;44822;-82
2021/07/28 08:20:01;;;;;;;;;;;18.40;95.50;;;;;;4359254;33;42837;-83
2021/07/28 08:22:33;;;;;;;;;;;18.40;95.40;;;;;;4346368;33;44750;-81
2021/07/28 08:25:00;;;;;;;;;;;18.40;95.40;;;;;;4359825;33;45582;-82
2021/07/28 08:27:33;;;;;;;;;;;18.40;95.30;;;;;;4358651;33;43478;-83
2021/07/28 08:30:06;;;;;;;;;;;18.40;95.30;;;;;;4358519;33;46255;-82
2021/07/28 08:32:42;;;;;;;;;;;18.40;95.30;;;;;;4359739;33;43998;-83
2021/07/28 08:35:12;;;;;;;;;;;18.40;95.20;;;;;;4359666;32;43444;-83
2021/07/28 08:37:41;;;;;;;;;;;18.50;95.20;;;;;;4362943;32;20464;-81
2021/07/28 08:40:13;;;;;;;;;;;18.50;95.20;;;;;;4362346;32;45593;-84
2021/07/28 08:42:54;;;;;;;;;;;18.50;95.10;;;;;;4362313;32;43380;-81
2021/07/28 08:45:26;;;;;;;;;;;18.50;95.10;;;;;;4349215;32;43269;-81
2021/07/28 08:47:56;;;;;;;;;;;18.50;95.00;;;;;;4362472;32;43396;-82
2021/07/28 08:50:29;;;;;;;;;;;18.50;94.80;;;;;;4348753;32;44313;-81
2021/07/28 08:53:04;;;;;;;;;;;18.50;94.70;;;;;;4361924;32;43257;-82
2021/07/28 08:55:39;;;;;;;;;;;18.50;94.80;;;;;;4361137;32;43348;-82
2021/07/28 08:58:14;;;;;;;;;;;18.50;94.70;;;;;;4362018;32;44216;-82
2021/07/28 09:00:47;;;;;;;;;;;18.50;94.70;;;;;;4348630;32;46173;-89
2021/07/28 09:03:17;;;;;;;;;;;18.50;94.60;;;;;;4361577;32;44736;-83
2021/07/28 09:06:06;;;;;;;;;;;18.60;94.40;;;;;;4361813;32;42798;-83
2021/07/28 09:08:34;;;;;;;;;;;18.50;94.50;;;;;;4361054;32;20001;-84
2021/07/28 09:11:06;;;;;;;;;;;18.50;94.50;;;;;;4361540;32;44276;-83
2021/07/28 09:13:37;;;;;;;;;;;18.60;94.40;;;;;;4348310;32;44348;-81
2021/07/28 09:16:08;;;;;;;;;;;18.60;94.30;;;;;;4348914;32;44113;-81
2021/07/28 09:18:36;;;;;;;;;;;18.60;94.30;;;;;;4361799;32;43927;-83
2021/07/28 09:21:18;;;;;;;;;;;18.60;94.20;;;;;;4348253;32;43837;-82
2021/07/28 09:23:47;;;;;;;;;;;18.60;94.20;;;;;;4361714;32;42371;-81
2021/07/28 09:26:42;;;;;;;;;;;18.60;94.20;;;;;;4347859;32;42688;-81
2021/07/28 09:29:15;;;;;;;;;;;18.60;94.20;;;;;;4360882;32;45681;-82
2021/07/28 09:31:42;;;;;;;;;;;18.60;94.10;;;;;;4348190;32;44139;-82
2021/07/28 09:34:22;;;;;;;;;;;18.60;94.10;;;;;;4347847;32;45694;-84
2021/07/28 09:36:56;;;;;;;;;;;18.70;94.10;;;;;;4361355;32;43874;-84
2021/07/28 09:39:29;;;;;;;;;;;18.70;94.10;;;;;;4360321;32;44199;-80
2021/07/28 09:41:58;;;;;;;;;;;18.70;93.80;;;;;;4347683;32;43085;-83
2021/07/28 09:44:32;;;;;;;;;;;18.70;93.80;;;;;;4360023;32;44030;-82
2021/07/28 09:47:12;;;;;;;;;;;18.70;93.60;;;;;;4347627;32;44618;-83
2021/07/28 09:49:45;;;;;;;;;;;18.70;93.60;;;;;;4347825;32;46198;-88
2021/07/28 09:52:25;;;;;;;;;;;18.70;93.40;;;;;;4360114;32;45041;-83
2021/07/28 09:54:57;;;;;;;;;;;18.70;93.50;;;;;;4360206;32;42769;-83
2021/07/28 09:57:30;;;;;;;;;;;18.80;93.20;;;;;;4360760;32;45188;-85
2021/07/28 10:00:05;;;;;;;;;;;18.80;93.20;;;;;;4360867;32;42450;-84
2021/07/28 10:02:33;;;;;;;;;;;18.80;93.00;;;;;;4360862;32;44131;-81
2021/07/28 10:05:05;;;;;;;;;;;18.80;93.20;;;;;;4360151;32;43470;-85
2021/07/28 10:07:36;;;;;;;;;;;18.80;93.10;;;;;;4359873;32;43786;-83
2021/07/28 10:10:09;;;;;;;;;;;18.80;93.20;;;;;;4361315;32;45894;-84
2021/07/28 10:12:46;;;;;;;;;;;18.80;92.70;;;;;;4347527;32;44752;-85
2021/07/28 10:15:13;;;;;;;;;;;18.80;92.80;;;;;;4359969;32;44815;-82
2021/07/28 10:17:44;;;;;;;;;;;18.90;92.50;;;;;;4360484;32;43933;-85
2021/07/28 10:20:12;;;;;;;;;;;18.90;92.60;;;;;;4360546;32;44928;-82
2021/07/28 10:22:48;;;;;;;;;;;18.90;92.20;;;;;;4360749;32;44010;-85
2021/07/28 10:25:16;;;;;;;;;;;18.90;92.40;;;;;;4359637;32;45209;-87
2021/07/28 10:27:44;;;;;;;;;;;18.90;92.30;;;;;;4359835;32;44853;-88
2021/07/28 10:30:14;;;;;;;;;;;18.90;92.30;;;;;;4359410;32;44111;-84
2021/07/28 10:32:45;;;;;;;;;;;18.90;92.40;;;;;;4360965;32;44948;-84
2021/07/28 10:35:22;;;;;;;;;;;18.90;92.30;;;;;;4360250;32;44931;-87
2021/07/28 10:37:53;;;;;;;;;;;18.90;92.30;;;;;;4347763;32;43343;-84
2021/07/28 10:40:26;;;;;;;;;;;19.00;92.40;;;;;;4360641;32;20031;-85
2021/07/28 10:43:08;;;;;;;;;;;19.00;92.30;;;;;;4346814;32;43244;-86
2021/07/28 10:45:54;;;;;;;;;;;19.00;92.30;;;;;;4347502;32;44232;-88
2021/07/28 10:48:36;;;;;;;;;;;19.00;92.10;;;;;;4360124;32;44614;-87
2021/07/28 10:51:03;;;;;;;;;;;19.00;92.10;;;;;;4347201;32;45836;-86
2021/07/28 10:53:51;;;;;;;;;;;19.00;92.10;;;;;;4347060;32;45739;-86
2021/07/28 10:56:18;;;;;;;;;;;19.00;91.90;;;;;;4358875;32;44124;-85
2021/07/28 10:58:48;;;;;;;;;;;19.00;92.00;;;;;;4346609;32;46013;-84
2021/07/28 11:01:40;;;;;;;;;;;19.00;92.10;;;;;;4359599;32;43341;-83
2021/07/28 11:04:24;;;;;;;;;;;19.10;92.10;;;;;;4359422;32;43355;-86
2021/07/28 11:06:56;;;;;;;;;;;19.10;92.00;;;;;;4347252;32;44649;-86
2021/07/28 11:09:25;;;;;;;;;;;19.10;91.70;;;;;;4360565;32;44181;-88
2021/07/28 11:11:54;;;;;;;;;;;19.20;92.00;;;;;;4348426;32;20000;-90
2021/07/28 11:14:26;;;;;;;;;;;19.20;91.70;;;;;;4347653;32;45524;-86
2021/07/28 11:16:57;;;;;;;;;;;19.30;91.70;;;;;;4359381;32;43469;-89
2021/07/28 11:19:44;;;;;;;;;;;19.20;91.40;;;;;;4360618;32;43867;-90
2021/07/28 11:22:11;;;;;;;;;;;19.20;91.50;;;;;;4347367;32;44215;-87
2021/07/28 11:24:38;;;;;;;;;;;19.30;91.40;;;;;;4346788;32;42915;-88
2021/07/28 11:27:14;;;;;;;;;;;19.30;91.10;;;;;;4360431;32;45803;-87
2021/07/28 11:29:41;;;;;;;;;;;19.30;91.20;;;;;;4360763;33;43249;-88
2021/07/28 11:32:20;;;;;;;;;;;19.30;91.30;;;;;;4347096;33;44820;-88
2021/07/28 11:34:55;;;;;;;;;;;19.30;91.10;;;;;;4360705;33;44242;-87
2021/07/28 11:37:22;;;;;;;;;;;19.30;91.10;;;;;;4347034;33;43211;-87
2021/07/28 11:39:49;;;;;;;;;;;19.30;91.10;;;;;;4358765;33;45140;-88
2021/07/28 11:42:16;;;;;;;;;;;19.30;90.80;;;;;;4347880;33;20125;-88
2021/07/28 11:44:44;;;;;;;;;;;19.30;90.90;;;;;;4359130;33;44146;-89
2021/07/28 11:47:12;;;;;;;;;;;19.30;90.70;;;;;;4346872;33;45666;-87
2021/07/28 11:49:39;;;;;;;;;;;19.30;90.50;;;;;;4358695;33;42626;-89
2021/07/28 11:52:06;;;;;;;;;;;19.30;90.70;;;;;;4346986;33;44198;-86
2021/07/28 11:54:39;;;;;;;;;;;19.30;90.50;;;;;;4360169;33;44296;-89
2021/07/28 11:57:06;;;;;;;;;;;19.30;90.40;;;;;;4359273;33;44272;-86
2021/07/28 11:59:41;;;;;;;;;;;19.30;90.50;;;;;;4346738;33;42894;-90
2021/07/28 12:02:17;;;;;;;;;;;19.30;90.70;;;;;;4361291;33;20443;-88
2021/07/28 12:04:47;;;;;;;;;;;19.40;90.50;;;;;;4358290;33;45782;-84
2021/07/28 12:07:16;;;;;;;;;;;19.40;90.30;;;;;;4346572;33;42476;-90
2021/07/28 12:09:58;;;;;;;;;;;19.40;90.30;;;;;;4358668;32;43999;-84
2021/07/28 12:12:28;;;;;;;;;;;19.40;90.10;;;;;;4362272;32;20037;-84
2021/07/28 12:15:06;;;;;;;;;;;19.50;89.50;;;;;;4349596;32;43890;-87
2021/07/28 12:17:33;;;;;;;;;;;19.50;89.30;;;;;;4361940;32;46063;-86
2021/07/28 12:20:01;;;;;;;;;;;19.50;89.30;;;;;;4349347;32;44416;-85
2021/07/28 12:22:41;;;;;;;;;;;19.50;89.30;;;;;;4348996;32;44826;-87
2021/07/28 12:25:14;;;;;;;;;;;19.50;89.60;;;;;;4361652;32;44327;-89
2021/07/28 12:27:57;;;;;;;;;;;19.60;89.10;;;;;;4362865;32;44161;-91
2021/07/28 12:30:28;;;;;;;;;;;19.50;89.00;;;;;;4349778;32;44648;-82
2021/07/28 12:33:01;;;;;;;;;;;19.50;88.60;;;;;;4362255;32;44868;-88
2021/07/28 12:35:32;;;;;;;;;;;19.60;89.60;;;;;;4362917;32;44070;-88
2021/07/28 12:38:10;;;;;;;;;;;19.60;89.30;;;;;;4349134;32;44382;-88
2021/07/28 12:40:38;;;;;;;;;;;19.60;89.70;;;;;;4361733;32;44429;-83
2021/07/28 12:43:06;;;;;;;;;;;19.60;89.40;;;;;;4364074;32;20012;-93
2021/07/28 12:45:36;;;;;;;;;;;19.70;89.80;;;;;;4361650;32;44664;-83
2021/07/28 12:48:04;;;;;;;;;;;19.70;89.20;;;;;;4362372;32;44353;-87
2021/07/28 12:50:31;;;;;;;;;;;19.70;89.60;;;;;;4348969;32;43492;-90
2021/07/28 12:53:01;;;;;;;;;;;19.80;88.70;;;;;;4362613;32;42909;-85
2021/07/28 12:55:30;;;;;;;;;;;19.80;89.00;;;;;;4349140;32;43587;-90
2021/07/28 12:57:59;;;;;;;;;;;19.80;89.20;;;;;;4362717;32;43481;-92
2021/07/28 13:00:32;;;;;;;;;;;19.80;89.40;;;;;;4348981;32;45035;-91
2021/07/28 13:02:59;;;;;;;;;;;19.90;89.40;;;;;;4361974;32;43998;-89
2021/07/28 13:05:27;;;;;;;;;;;19.90;89.50;;;;;;4361891;32;44039;-83
2021/07/28 13:10:24;;;;;;;;;;;19.90;89.00;;;;;;4362407;32;43517;-93
2021/07/28 13:12:54;;;;;;;;;;;20.00;88.70;;;;;;4349517;32;44789;-87
2021/07/28 13:15:24;;;;;;;;;;;20.00;88.80;;;;;;4361586;32;44267;-86
2021/07/28 13:17:51;;;;;;;;;;;20.00;88.50;;;;;;4348277;32;43103;-86
2021/07/28 13:20:18;;;;;;;;;;;20.10;88.20;;;;;;4360624;32;42558;-89
2021/07/28 13:22:45;;;;;;;;;;;20.10;87.50;;;;;;4361769;32;46002;-91
2021/07/28 13:25:13;;;;;;;;;;;20.10;88.00;;;;;;4361870;32;44320;-88
2021/07/28 13:27:40;;;;;;;;;;;20.10;88.00;;;;;;4360366;32;44639;-88
2021/07/28 13:30:08;;;;;;;;;;;20.10;87.70;;;;;;4348131;32;44212;-85
2021/07/28 13:32:35;;;;;;;;;;;20.20;87.20;;;;;;4360533;32;42735;-84
2021/07/28 13:35:05;;;;;;;;;;;20.20;87.80;;;;;;4348391;32;42770;-87
2021/07/28 13:37:35;;;;;;;;;;;20.20;87.10;;;;;;4360400;32;44436;-87
2021/07/28 13:40:10;;;;;;;;;;;20.20;87.20;;;;;;4362168;32;44782;-83
2021/07/28 13:42:50;;;;;;;;;;;20.30;86.90;;;;;;4362124;32;45217;-89
2021/07/28 13:45:18;;;;;;;;;;;20.30;86.90;;;;;;4348678;32;45050;-88
2021/07/28 13:47:51;;;;;;;;;;;20.30;86.70;;;;;;4360763;32;43789;-87
2021/07/28 13:50:19;;;;;;;;;;;20.40;86.10;;;;;;4360441;32;43883;-88
2021/07/28 13:52:46;;;;;;;;;;;20.40;86.10;;;;;;4361454;32;43381;-88
2021/07/28 13:55:14;;;;;;;;;;;20.40;85.90;;;;;;4347555;32;44124;-86
2021/07/28 13:57:44;;;;;;;;;;;20.50;86.40;;;;;;4359958;32;42743;-84
2021/07/28 14:00:14;;;;;;;;;;;20.50;85.70;;;;;;4361600;32;44850;-90
2021/07/28 14:02:42;;;;;;;;;;;20.50;86.20;;;;;;4347781;32;44917;-86
2021/07/28 14:05:13;;;;;;;;;;;20.50;86.50;;;;;;4359642;32;46111;-88
2021/07/28 14:07:40;;;;;;;;;;;20.50;86.20;;;;;;4348100;32;44780;-91
2021/07/28 14:10:09;;;;;;;;;;;20.50;86.40;;;;;;4360105;32;44271;-87
2021/07/28 14:12:38;;;;;;;;;;;20.50;86.30;;;;;;4359884;32;43425;-89
2021/07/28 14:15:06;;;;;;;;;;;20.60;86.80;;;;;;4348833;32;19992;-90
2021/07/28 14:17:36;;;;;;;;;;;20.60;86.30;;;;;;4359884;32;44323;-84
2021/07/28 14:20:09;;;;;;;;;;;20.60;85.00;;;;;;4347637;32;43962;-86
2021/07/28 14:22:36;;;;;;;;;;;20.50;85.50;;;;;;4347312;32;44079;-88
2021/07/28 14:25:04;;;;;;;;;;;20.50;85.80;;;;;;4360714;32;44619;-88
2021/07/28 14:27:32;;;;;;;;;;;20.60;85.70;;;;;;4360004;32;42923;-87
2021/07/28 14:30:02;;;;;;;;;;;20.50;86.00;;;;;;4359966;32;44272;-86
2021/07/28 14:32:29;;;;;;;;;;;20.50;85.80;;;;;;4347290;32;44840;-87
2021/07/28 14:34:56;;;;;;;;;;;20.50;85.10;;;;;;4359121;32;43951;-86
2021/07/28 14:37:25;;;;;;;;;;;20.50;84.50;;;;;;4361012;32;44310;-87
2021/07/28 14:39:52;;;;;;;;;;;20.50;84.50;;;;;;4360534;32;43799;-88